Time;durP1;ratioP1;P1;durP2;ratioP2;P2;SDS_P1;SDS_P2;PMS_P1;PMS_P2;Temp;Humidity;BMP_temperature;BMP_pressure;BME280_temperature;BME280_humidity;BME280_pressure;Samples;Min_cycle;Max_cycle;Signal;HPM_P1;HPM_P2
2024/01/16 00:05:29;;;;;;;4.05;3.45;;;;;;;0.13;80.05;98648.19;7278551;40;20260;31
2024/01/16 00:10:49;;;;;;;6.57;3.63;;;;;;;0.11;80.00;98656.25;7255413;40;20231;31
2024/01/16 00:16:25;;;;;;;8.00;3.35;;;;;;;0.06;80.47;98658.38;7279470;40;20240;31
2024/01/16 00:22:02;;;;;;;9.00;3.80;;;;;;;0.06;80.27;98655.72;7224256;40;20242;31
2024/01/16 00:27:36;;;;;;;4.75;3.30;;;;;;;0.04;80.69;98651.53;7188837;40;20444;31
2024/01/16 00:33:12;;;;;;;3.80;3.10;;;;;;;0.08;80.87;98650.34;7170810;40;20240;31
2024/01/16 00:38:47;;;;;;;4.43;3.30;;;;;;;0.02;80.62;98661.38;7168353;40;20259;31
2024/01/16 00:44:07;;;;;;;7.00;3.50;;;;;;;-0.02;80.52;98664.25;7145799;40;20258;31
2024/01/16 00:49:25;;;;;;;6.93;3.37;;;;;;;-0.03;80.71;98661.72;7166581;40;20250;31
2024/01/16 01:00:01;;;;;;;6.95;3.25;;;;;;;-0.09;81.03;98660.34;7224365;39;21452;31
2024/01/16 01:10:37;;;;;;;7.30;3.10;;;;;;;-0.05;80.39;98667.16;7245154;40;21347;31
2024/01/16 01:16:13;;;;;;;5.95;3.50;;;;;;;-0.07;81.32;98681.44;7238592;40;20363;31
2024/01/16 01:21:33;;;;;;;6.43;3.50;;;;;;;-0.06;80.77;98694.59;7189390;40;20317;31
2024/01/16 01:26:54;;;;;;;6.53;3.57;;;;;;;-0.12;81.21;98687.06;7261545;40;20264;31
2024/01/16 01:32:31;;;;;;;6.17;3.83;;;;;;;-0.17;80.93;98691.84;7215171;40;20262;31
2024/01/16 01:43:10;;;;;;;7.70;3.97;;;;;;;-0.16;80.52;98698.84;7245651;40;20689;31
2024/01/16 01:48:46;;;;;;;6.73;3.43;;;;;;;-0.17;81.23;98706.91;7248684;40;20288;31
2024/01/16 01:59:22;;;;;;;8.13;3.77;;;;;;;-0.21;81.46;98708.94;7257978;40;21431;31
2024/01/16 02:04:58;;;;;;;8.47;3.80;;;;;;;-0.25;80.75;98707.47;7251956;40;20260;31
2024/01/16 02:10:18;;;;;;;5.77;3.70;;;;;;;-0.15;81.11;98713.78;7238280;40;20238;31
2024/01/16 02:15:54;;;;;;;10.38;3.62;;;;;;;-0.18;80.64;98708.72;7276761;40;20237;31
2024/01/16 02:21:32;;;;;;;7.27;3.97;;;;;;;-0.23;81.14;98692.31;7265837;40;20339;31
2024/01/16 02:32:12;;;;;;;8.40;3.90;;;;;;;-0.20;81.59;98685.94;7248695;40;20292;31
2024/01/16 02:37:32;;;;;;;5.50;3.45;;;;;;;-0.16;81.32;98679.47;7212808;40;20419;31
2024/01/16 02:42:53;;;;;;;6.80;3.50;;;;;;;-0.17;81.47;98683.91;7289108;39;20467;31
2024/01/16 02:53:34;;;;;;;5.67;3.70;;;;;;;-0.23;81.31;98680.88;7293569;39;20394;31
2024/01/16 02:59:09;;;;;;;5.50;3.60;;;;;;;-0.22;81.09;98685.22;7219383;40;20242;31
2024/01/16 03:04:29;;;;;;;6.73;3.37;;;;;;;-0.17;81.12;98698.94;7238212;40;20375;31
2024/01/16 03:10:05;;;;;;;6.33;3.40;;;;;;;-0.26;81.27;98692.53;7218812;40;20332;31
2024/01/16 03:15:25;;;;;;;7.40;3.63;;;;;;;-0.24;81.60;98687.12;7246858;40;20351;31
2024/01/16 03:26:04;;;;;;;7.40;3.80;;;;;;;-0.21;80.72;98695.69;7221311;39;21336;31
2024/01/16 03:36:26;;;;;;;6.13;3.60;;;;;;;-0.27;81.42;98696.16;7285104;39;20455;31
2024/01/16 03:42:01;;;;;;;9.90;3.90;;;;;;;-0.33;80.87;98706.31;7283912;40;20245;31
2024/01/16 03:47:22;;;;;;;5.40;3.40;;;;;;;-0.35;80.96;98695.03;7286607;39;20454;31
2024/01/16 03:52:42;;;;;;;4.95;3.40;;;;;;;-0.36;81.53;98711.84;7318900;39;20306;31
2024/01/16 03:58:18;;;;;;;5.50;3.30;;;;;;;-0.46;81.47;98704.56;7329904;39;20368;31
2024/01/16 04:03:39;;;;;;;4.90;3.20;;;;;;;-0.48;81.57;98706.47;7324839;39;20305;31
2024/01/16 04:09:14;;;;;;;6.40;3.60;;;;;;;-0.47;81.17;98712.63;7319707;39;20647;31
2024/01/16 04:19:54;;;;;;;10.35;3.80;;;;;;;-0.59;81.30;98700.25;7304060;39;20290;31
2024/01/16 04:25:29;;;;;;;6.20;3.60;;;;;;;-0.56;81.30;98710.63;7288291;40;20230;31
2024/01/16 04:31:04;;;;;;;9.83;4.13;;;;;;;-0.50;81.60;98702.25;7263552;40;20237;31
2024/01/16 04:36:40;;;;;;;6.50;3.80;;;;;;;-0.62;80.97;98705.78;7239190;40;20246;31
2024/01/16 04:42:01;;;;;;;7.80;4.33;;;;;;;-0.59;82.14;98708.19;7217155;40;20250;31
2024/01/16 04:47:21;;;;;;;5.73;3.73;;;;;;;-0.63;81.91;98704.09;7195887;40;20319;31
2024/01/16 04:58:01;;;;;;;5.00;3.70;;;;;;;-0.85;81.92;98702.09;7251273;39;20401;31
2024/01/16 05:03:34;;;;;;;7.03;3.70;;;;;;;-0.84;82.59;98689.75;7238162;40;20399;31
2024/01/16 05:08:53;;;;;;;6.67;3.77;;;;;;;-0.86;82.19;98681.06;7210745;40;20238;31
2024/01/16 05:14:29;;;;;;;6.87;3.63;;;;;;;-0.91;82.07;98673.44;7217201;40;20242;31
2024/01/16 05:19:51;;;;;;;7.27;4.80;;;;;;;-0.85;82.72;98672.16;7197109;40;20309;31
2024/01/16 05:25:11;;;;;;;8.05;4.70;;;;;;;-0.79;82.64;98661.97;7193858;40;20312;31
2024/01/16 05:30:47;;;;;;;11.27;5.00;;;;;;;-0.81;82.37;98660.41;7247093;40;20241;31
2024/01/16 05:36:08;;;;;;;7.07;4.50;;;;;;;-0.86;82.89;98650.16;7246856;40;20250;31
2024/01/16 05:41:43;;;;;;;7.70;4.90;;;;;;;-0.92;81.93;98645.28;7258312;39;20332;31
2024/01/16 05:47:20;;;;;;;5.53;4.03;;;;;;;-0.92;82.21;98642.66;7274924;39;20485;31
2024/01/16 05:52:41;;;;;;;7.12;4.15;;;;;;;-0.84;81.67;98650.06;7246208;40;20274;31
2024/01/16 06:03:21;;;;;;;6.63;4.53;;;;;;;-0.94;81.51;98631.34;7237367;40;20258;31
2024/01/16 06:08:42;;;;;;;9.80;3.90;;;;;;;-0.91;81.58;98639.06;7217529;40;20308;31
2024/01/16 06:14:02;;;;;;;7.07;3.80;;;;;;;-0.94;81.59;98642.78;7237868;40;20283;31
2024/01/16 06:19:37;;;;;;;9.70;4.20;;;;;;;-1.09;81.68;98630.63;7239340;40;20257;31
2024/01/16 06:25:14;;;;;;;11.10;4.50;;;;;;;-1.08;82.84;98648.19;7190543;40;20253;31
2024/01/16 06:30:35;;;;;;;5.23;3.90;;;;;;;-1.01;82.47;98653.91;7180709;40;20396;31
2024/01/16 06:36:12;;;;;;;8.40;4.50;;;;;;;-1.02;82.77;98646.91;7173011;40;20257;31
2024/01/16 06:41:47;;;;;;;9.15;4.60;;;;;;;-0.93;82.92;98643.63;7210617;40;21521;31
2024/01/16 06:47:08;;;;;;;8.23;5.27;;;;;;;-0.97;82.27;98643.00;7248746;40;20358;31
2024/01/16 06:52:44;;;;;;;6.95;4.80;;;;;;;-1.06;82.34;98619.84;7268544;40;20367;31
2024/01/16 06:58:05;;;;;;;9.05;4.60;;;;;;;-0.97;82.54;98626.28;7307284;39;20240;31
2024/01/16 07:03:41;;;;;;;7.30;4.20;;;;;;;-0.96;82.20;98638.53;7298066;39;20378;31
2024/01/16 07:09:20;;;;;;;6.80;4.20;;;;;;;-0.96;82.72;98627.94;7232499;40;20235;31
2024/01/16 07:14:55;;;;;;;8.07;4.80;;;;;;;-0.96;82.81;98631.44;7259944;40;20245;31
2024/01/16 07:20:31;;;;;;;5.00;4.00;;;;;;;-1.00;82.50;98645.84;7202997;40;20278;31
2024/01/16 07:26:09;;;;;;;7.47;4.20;;;;;;;-1.05;81.29;98641.81;7146712;40;20281;31
2024/01/16 07:31:30;;;;;;;7.73;5.07;;;;;;;-1.05;81.64;98655.03;7170670;40;20243;31
2024/01/16 07:36:50;;;;;;;8.03;5.03;;;;;;;-1.19;82.22;98647.25;7158910;40;20242;31
2024/01/16 07:42:26;;;;;;;7.70;5.00;;;;;;;-1.18;82.07;98641.84;7227903;40;20238;31
2024/01/16 07:48:02;;;;;;;15.40;11.30;;;;;;;-1.27;81.88;98639.03;7197324;40;20321;31
2024/01/16 07:53:22;;;;;;;10.67;6.57;;;;;;;-1.29;81.86;98647.03;7176469;40;20406;31
2024/01/16 07:58:58;;;;;;;11.50;6.70;;;;;;;-1.25;81.74;98664.38;7216504;40;20238;31
2024/01/16 08:04:19;;;;;;;40.33;17.63;;;;;;;-1.18;81.85;98664.78;7199971;40;20247;31
2024/01/16 08:09:39;;;;;;;17.83;8.27;;;;;;;-1.15;81.86;98661.94;7212031;40;20273;31
2024/01/16 08:15:15;;;;;;;13.27;7.47;;;;;;;-1.15;81.50;98660.16;7241470;40;20268;31
2024/01/16 08:20:33;;;;;;;12.80;7.20;;;;;;;-1.09;81.33;98654.41;7028113;40;20238;31
2024/01/16 08:26:08;;;;;;;12.43;7.43;;;;;;;-1.12;82.15;98653.78;7241279;40;20255;31
2024/01/16 08:31:44;;;;;;;11.80;6.30;;;;;;;-1.14;81.02;98659.19;7215202;40;20262;31
2024/01/16 08:37:05;;;;;;;11.20;6.70;;;;;;;-1.07;81.76;98667.53;7230155;40;20253;31
2024/01/16 08:42:40;;;;;;;10.33;5.63;;;;;;;-1.07;81.84;98668.41;7212592;40;20322;31
2024/01/16 08:48:16;;;;;;;18.23;11.87;;;;;;;-1.01;81.16;98673.22;7189131;40;20388;31
2024/01/16 08:53:51;;;;;;;16.00;10.07;;;;;;;-0.96;82.18;98679.06;7216213;40;20261;31
2024/01/16 08:59:11;;;;;;;9.10;5.67;;;;;;;-0.94;80.98;98684.25;7199055;40;20255;31
2024/01/16 09:04:50;;;;;;;9.60;5.70;;;;;;;-0.91;81.47;98684.88;7208501;40;20242;31
2024/01/16 09:10:24;;;;;;;9.65;5.30;;;;;;;-0.81;81.83;98689.50;7190824;40;20236;31
2024/01/16 09:16:00;;;;;;;8.57;5.57;;;;;;;-0.81;81.77;98690.34;7194802;40;20470;31
2024/01/16 09:21:37;;;;;;;11.20;5.53;;;;;;;-0.74;81.32;98694.25;7101827;41;20248;31
2024/01/16 09:27:14;;;;;;;6.90;5.10;;;;;;;-0.71;81.87;98696.69;7137198;40;20305;31
2024/01/16 09:32:32;;;;;;;12.90;6.03;;;;;;;-0.76;81.40;98693.53;7120931;40;20267;31
2024/01/16 09:38:09;;;;;;;11.20;5.80;;;;;;;-0.68;81.69;98708.84;7192726;39;20238;31
2024/01/16 09:43:44;;;;;;;11.90;5.70;;;;;;;-0.65;81.10;98712.13;7225366;40;20471;31
2024/01/16 09:49:17;;;;;;;9.75;5.85;;;;;;;-0.64;80.97;98689.16;7197774;40;20266;31
2024/01/16 09:54:53;;;;;;;10.15;5.60;;;;;;;-0.58;81.86;98697.53;7168987;40;20243;31
2024/01/16 10:00:14;;;;;;;8.05;5.25;;;;;;;-0.46;81.13;98669.31;7167081;40;20268;31
2024/01/16 10:05:49;;;;;;;9.90;6.03;;;;;;;-0.40;80.96;98658.28;7207216;40;20259;31
2024/01/16 10:11:25;;;;;;;11.30;5.90;;;;;;;-0.35;81.11;98653.47;7227634;40;20254;31
2024/01/16 10:17:15;;;;;;;9.10;5.55;;;;;;;-0.25;80.52;98664.25;7177956;40;20373;31
2024/01/16 10:22:46;;;;;;;13.30;6.97;;;;;;;-0.21;80.87;98665.72;7169390;40;20247;31
2024/01/16 10:28:20;;;;;;;7.85;5.75;;;;;;;-0.15;80.75;98652.87;7178024;40;20251;31
2024/01/16 10:33:40;;;;;;;11.70;5.90;;;;;;;-0.04;80.49;98652.06;7148429;40;20420;31
2024/01/16 10:39:15;;;;;;;9.07;5.67;;;;;;;-0.01;79.49;98655.38;7175311;40;20304;31
2024/01/16 10:44:51;;;;;;;11.23;5.57;;;;;;;0.06;79.56;98649.59;7159723;40;20247;31
2024/01/16 10:50:12;;;;;;;10.20;5.25;;;;;;;0.20;79.63;98644.09;7132468;40;20263;31
2024/01/16 10:55:47;;;;;;;8.50;5.53;;;;;;;0.27;79.39;98637.37;7137287;40;20401;31
2024/01/16 11:01:23;;;;;;;15.33;7.27;;;;;;;0.37;79.07;98630.41;7131832;40;20310;31
2024/01/16 11:06:58;;;;;;;8.30;5.55;;;;;;;0.47;78.37;98627.91;7207300;40;20341;31
2024/01/16 11:12:33;;;;;;;39.35;18.00;;;;;;;0.63;78.49;98616.00;7251780;40;20246;31
2024/01/16 11:18:09;;;;;;;27.30;12.60;;;;;;;0.85;78.26;98604.56;7173920;40;20259;31
2024/01/16 11:23:45;;;;;;;25.10;13.47;;;;;;;0.98;77.76;98594.66;7180583;40;20232;31
2024/01/16 11:29:46;;;;;;;34.00;16.80;;;;;;;0.99;77.59;98585.75;7247059;40;20358;31
2024/01/16 11:35:20;;;;;;;32.00;14.53;;;;;;;1.03;77.37;98575.75;7260501;40;20256;31
2024/01/16 11:40:55;;;;;;;14.75;8.30;;;;;;;1.00;77.59;98587.44;7198565;40;20239;31
2024/01/16 11:46:16;;;;;;;22.13;12.27;;;;;;;1.06;77.75;98575.47;7222617;40;20469;31
2024/01/16 11:51:52;;;;;;;13.35;7.35;;;;;;;1.10;77.66;98571.62;7268437;39;20254;31
2024/01/16 11:57:52;;;;;;;9.30;5.63;;;;;;;1.34;77.62;98564.34;7266357;39;20399;31
2024/01/16 12:03:27;;;;;;;9.80;5.20;;;;;;;1.45;77.17;98547.56;7238542;40;20254;31
2024/01/16 12:09:03;;;;;;;7.70;5.23;;;;;;;1.54;76.00;98544.13;7179237;40;20289;31
2024/01/16 12:19:42;;;;;;;10.50;4.83;;;;;;;1.68;75.43;98539.34;7203250;40;20292;31
2024/01/16 12:30:24;;;;;;;6.55;4.30;;;;;;;1.78;73.98;98519.03;7200049;39;20273;31
2024/01/16 12:35:45;;;;;;;6.70;4.53;;;;;;;1.78;73.75;98516.38;7277902;40;20248;31
2024/01/16 12:41:21;;;;;;;7.55;4.25;;;;;;;1.83;73.78;98501.88;7291719;39;20333;31
2024/01/16 12:46:56;;;;;;;6.00;3.80;;;;;;;1.78;73.00;98494.28;7298603;39;20233;31
2024/01/16 12:52:32;;;;;;;5.25;3.85;;;;;;;1.90;72.61;98484.41;7257214;39;20497;31
2024/01/16 12:58:28;;;;;;;6.10;3.90;;;;;;;2.01;72.79;98481.72;7208203;40;20270;31
2024/01/16 13:04:04;;;;;;;6.50;3.63;;;;;;;1.99;72.27;98478.31;7239314;39;20241;31
2024/01/16 13:09:26;;;;;;;9.60;4.80;;;;;;;2.05;72.16;98476.00;7170810;40;20262;31
2024/01/16 13:14:46;;;;;;;10.32;6.45;;;;;;;2.15;72.75;98468.91;7200202;40;20243;31
2024/01/16 13:20:22;;;;;;;15.90;10.20;;;;;;;2.14;71.30;98450.44;7232798;40;20261;31
2024/01/16 13:25:59;;;;;;;16.80;8.17;;;;;;;2.22;72.37;98440.00;7251175;40;20552;31
2024/01/16 13:31:18;;;;;;;28.77;17.70;;;;;;;2.29;72.16;98438.47;7234905;40;20356;31
2024/01/16 13:41:59;;;;;;;17.25;9.70;;;;;;;2.25;71.66;98429.94;7264648;40;20269;31
2024/01/16 13:47:39;;;;;;;21.00;11.37;;;;;;;2.25;71.23;98427.28;7302232;39;20260;31
2024/01/16 13:53:09;;;;;;;19.80;12.20;;;;;;;2.17;70.25;98428.91;7230277;40;20340;31
2024/01/16 13:58:45;;;;;;;14.03;6.60;;;;;;;2.15;71.32;98422.91;7158107;40;20281;31
2024/01/16 14:04:20;;;;;;;19.10;10.10;;;;;;;2.13;71.98;98420.38;7168590;40;20261;31
2024/01/16 14:09:55;;;;;;;25.15;12.85;;;;;;;2.01;71.46;98418.78;7136149;40;20264;31
2024/01/16 14:20:36;;;;;;;24.50;14.57;;;;;;;1.91;70.38;98420.53;7200251;40;20256;31
2024/01/16 14:26:12;;;;;;;28.10;15.75;;;;;;;1.91;71.66;98422.34;7189081;40;21489;31
2024/01/16 14:31:32;;;;;;;19.25;13.65;;;;;;;1.88;71.18;98425.28;7196934;40;20393;31
2024/01/16 14:42:11;;;;;;;23.03;13.13;;;;;;;1.71;71.32;98406.28;7248746;40;20269;31
2024/01/16 14:47:31;;;;;;;26.30;12.88;;;;;;;1.70;71.50;98415.25;7006201;40;21333;31
2024/01/16 14:53:07;;;;;;;35.00;17.70;;;;;;;1.64;71.85;98420.22;7246306;39;20244;31
2024/01/16 14:58:43;;;;;;;26.00;13.23;;;;;;;1.66;71.14;98413.84;7157854;40;20258;31
2024/01/16 15:04:18;;;;;;;14.13;6.90;;;;;;;1.64;71.97;98404.28;7160963;40;21360;31
2024/01/16 15:09:39;;;;;;;14.25;8.25;;;;;;;1.62;71.74;98407.09;7177108;40;20270;31
2024/01/16 15:15:15;;;;;;;18.15;12.30;;;;;;;1.60;71.55;98409.03;7124685;40;20245;31
2024/01/16 15:20:50;;;;;;;29.05;15.90;;;;;;;1.64;72.01;98420.22;7205841;40;20380;31
2024/01/16 15:26:25;;;;;;;20.70;12.23;;;;;;;1.61;71.88;98400.09;7226146;40;20257;31
2024/01/16 15:32:01;;;;;;;18.67;12.57;;;;;;;1.54;71.47;98404.22;7235855;40;20367;31
2024/01/16 15:37:22;;;;;;;11.85;7.60;;;;;;;1.50;72.45;98397.50;7212771;40;20647;31
2024/01/16 15:42:42;;;;;;;10.80;7.25;;;;;;;1.51;71.94;98412.47;7210547;40;20380;31
2024/01/16 15:48:19;;;;;;;6.50;4.45;;;;;;;1.35;71.64;98409.41;7212190;40;20358;31
2024/01/16 15:53:54;;;;;;;8.60;4.90;;;;;;;1.17;71.95;98410.94;7233429;39;20246;31
2024/01/16 15:59:29;;;;;;;8.80;4.20;;;;;;;0.99;72.19;98407.16;7193875;40;20274;31
2024/01/16 16:05:05;;;;;;;6.50;3.60;;;;;;;0.83;72.58;98403.09;7177276;40;20242;31
2024/01/16 16:10:41;;;;;;;6.20;3.70;;;;;;;0.75;72.98;98418.81;7206240;40;20252;31
2024/01/16 16:16:00;;;;;;;5.60;3.37;;;;;;;0.68;73.05;98445.94;7218675;40;20254;31
2024/01/16 16:21:36;;;;;;;5.07;3.40;;;;;;;0.53;72.57;98440.06;7209512;40;20265;31
2024/01/16 16:26:58;;;;;;;6.20;3.65;;;;;;;0.39;72.90;98430.59;7243030;40;20262;31
2024/01/16 16:32:16;;;;;;;5.20;3.60;;;;;;;0.25;73.05;98428.19;7247509;40;20429;31
2024/01/16 16:37:50;;;;;;;6.27;3.40;;;;;;;0.17;73.19;98430.59;7286363;39;20234;31
2024/01/16 16:43:10;;;;;;;4.65;3.10;;;;;;;0.16;73.38;98431.56;7266905;39;20257;31
2024/01/16 16:48:46;;;;;;;5.50;3.60;;;;;;;0.10;73.16;98428.53;7291878;39;20498;31
2024/01/16 16:54:21;;;;;;;6.50;3.80;;;;;;;0.00;73.21;98431.87;7300482;39;20257;31
2024/01/16 16:59:41;;;;;;;5.37;3.77;;;;;;;0.02;73.57;98441.53;7170719;40;20265;31
2024/01/16 17:05:16;;;;;;;9.85;5.30;;;;;;;-0.13;73.05;98436.44;7176460;40;20379;31
2024/01/16 17:10:52;;;;;;;8.75;4.80;;;;;;;-0.24;73.60;98422.38;7171066;40;20467;31
2024/01/16 17:16:28;;;;;;;8.13;4.40;;;;;;;-0.36;73.42;98426.81;7222295;40;20255;31
2024/01/16 17:22:02;;;;;;;6.85;4.25;;;;;;;-0.42;74.09;98402.59;7216291;40;20302;31
2024/01/16 17:27:39;;;;;;;6.93;4.67;;;;;;;-0.41;74.35;98418.38;7185548;40;20243;31
2024/01/16 17:33:13;;;;;;;5.50;3.80;;;;;;;-0.41;73.99;98412.25;7175833;40;20242;31
2024/01/16 17:38:52;;;;;;;6.63;3.83;;;;;;;-0.54;73.49;98393.81;7190626;40;20252;31
2024/01/16 17:44:24;;;;;;;6.05;4.20;;;;;;;-0.67;74.19;98393.91;7208693;40;20391;31
2024/01/16 17:49:59;;;;;;;7.95;4.20;;;;;;;-0.72;73.41;98387.28;7199367;40;20372;31
2024/01/16 17:55:35;;;;;;;6.75;4.00;;;;;;;-0.77;73.80;98371.75;7187811;40;20336;31
2024/01/16 18:01:11;;;;;;;7.30;4.00;;;;;;;-0.97;74.25;98362.69;7147346;40;20374;31
2024/01/16 18:06:47;;;;;;;9.63;5.33;;;;;;;-0.98;74.05;98346.94;7181414;40;20250;31
2024/01/16 18:12:10;;;;;;;8.80;4.13;;;;;;;-1.01;73.83;98337.41;7246812;40;20241;31
2024/01/16 18:17:45;;;;;;;7.00;3.55;;;;;;;-1.03;73.63;98333.22;7226166;40;20257;31
2024/01/16 18:23:20;;;;;;;8.15;4.10;;;;;;;-1.07;73.46;98329.13;7225824;40;20388;31
2024/01/16 18:28:41;;;;;;;6.45;3.50;;;;;;;-1.02;74.80;98322.53;7239030;40;21414;31
2024/01/16 18:34:20;;;;;;;5.80;3.30;;;;;;;-1.06;74.53;98325.53;7219268;40;20373;31
2024/01/16 18:39:51;;;;;;;6.95;3.20;;;;;;;-1.29;73.87;98334.31;7248560;40;20245;31
2024/01/16 18:45:13;;;;;;;7.25;4.55;;;;;;;-1.57;73.84;98336.34;7249008;40;20243;31
2024/01/16 18:50:50;;;;;;;5.57;3.77;;;;;;;-1.61;73.91;98324.31;7260826;40;20376;31
2024/01/16 18:56:27;;;;;;;5.50;2.70;;;;;;;-1.89;73.55;98319.38;7238978;40;20701;31
2024/01/16 19:02:02;;;;;;;4.90;4.00;;;;;;;-1.91;74.93;98319.50;7206976;40;20252;31
2024/01/16 19:07:40;;;;;;;16.93;7.80;;;;;;;-2.07;73.78;98313.62;7245232;40;20371;31
2024/01/16 19:13:00;;;;;;;8.43;4.07;;;;;;;-2.10;74.50;98311.19;7200707;40;20251;31
2024/01/16 19:18:35;;;;;;;9.93;6.67;;;;;;;-2.20;74.34;98302.28;7175795;40;20348;31
2024/01/16 19:24:12;;;;;;;7.60;3.65;;;;;;;-2.22;74.95;98275.12;7159505;40;20248;31
2024/01/16 19:29:46;;;;;;;8.23;3.80;;;;;;;-2.27;74.87;98293.94;7120912;40;20245;31
2024/01/16 19:35:22;;;;;;;6.72;3.90;;;;;;;-2.49;74.05;98282.38;7171335;40;20332;31
2024/01/16 19:46:05;;;;;;;7.27;3.70;;;;;;;-2.51;74.55;98258.75;7210977;40;20764;31
2024/01/16 19:51:40;;;;;;;5.57;3.23;;;;;;;-2.42;74.44;98252.81;7218017;40;20277;31
2024/01/16 19:57:16;;;;;;;5.40;3.20;;;;;;;-2.40;74.86;98239.50;7204668;40;20279;31
2024/01/16 20:02:53;;;;;;;3.70;2.73;;;;;;;-2.49;73.10;98234.88;7240907;40;20269;31
2024/01/16 20:08:28;;;;;;;3.45;2.70;;;;;;;-2.63;75.11;98227.13;7249502;40;20245;31
2024/01/16 20:14:03;;;;;;;4.83;2.77;;;;;;;-2.79;74.70;98238.75;7249484;40;20375;31
2024/01/16 20:19:39;;;;;;;6.85;3.10;;;;;;;-2.93;74.50;98240.66;7241326;40;20397;31
2024/01/16 20:25:14;;;;;;;4.77;2.83;;;;;;;-3.06;74.91;98230.13;7208483;40;20242;31
2024/01/16 20:30:36;;;;;;;6.80;3.80;;;;;;;-3.06;75.44;98229.28;7191021;40;20253;31
2024/01/16 20:36:12;;;;;;;33.10;14.27;;;;;;;-3.07;74.99;98228.44;7224040;40;20301;31
2024/01/16 20:41:32;;;;;;;15.90;10.17;;;;;;;-3.15;75.32;98229.91;7207207;40;20372;31
2024/01/16 20:46:52;;;;;;;13.73;9.80;;;;;;;-3.27;75.26;98223.69;7204794;40;20242;31
2024/01/16 20:52:29;;;;;;;5.60;3.60;;;;;;;-3.40;75.36;98217.59;7260069;40;20364;31
2024/01/16 20:58:05;;;;;;;3.30;2.20;;;;;;;-3.53;75.47;98196.50;7218925;40;20241;31
2024/01/16 21:03:27;;;;;;;4.13;2.40;;;;;;;-3.54;75.85;98192.19;7237668;40;20257;31
2024/01/16 21:09:02;;;;;;;4.13;2.73;;;;;;;-3.60;75.51;98181.22;7036078;40;20344;31
2024/01/16 21:14:34;;;;;;;4.67;2.83;;;;;;;-3.76;76.14;98191.94;7204782;40;20282;31
2024/01/16 21:19:54;;;;;;;6.00;3.43;;;;;;;-3.79;76.62;98193.00;7155385;40;20346;31
2024/01/16 21:25:30;;;;;;;6.23;3.80;;;;;;;-3.69;76.92;98167.75;7186672;40;20274;31
2024/01/16 21:31:05;;;;;;;7.70;3.60;;;;;;;-3.45;76.99;98161.75;7214977;40;20347;31
2024/01/16 21:36:40;;;;;;;5.50;3.60;;;;;;;-3.21;77.03;98157.44;7169084;40;20314;31
2024/01/16 21:42:16;;;;;;;7.27;3.67;;;;;;;-3.27;76.25;98139.41;7187473;40;20243;31
2024/01/16 21:47:37;;;;;;;4.77;3.17;;;;;;;-3.24;76.43;98134.75;7148090;40;20248;31
2024/01/16 21:53:12;;;;;;;5.83;3.20;;;;;;;-3.31;76.31;98114.22;7192134;40;20262;31
2024/01/16 22:03:52;;;;;;;5.80;3.00;;;;;;;-3.66;76.43;98111.41;7249107;40;21851;31
2024/01/16 22:14:32;;;;;;;6.93;3.23;;;;;;;-3.83;77.54;98107.31;7224121;40;20758;31
2024/01/16 22:20:10;;;;;;;6.00;3.67;;;;;;;-3.82;77.64;98092.34;7176390;40;20262;31
2024/01/16 22:25:44;;;;;;;11.03;3.47;;;;;;;-3.73;77.93;98082.00;7143870;40;20244;31
2024/01/16 22:31:06;;;;;;;7.73;3.13;;;;;;;-3.57;77.69;98080.97;7239221;40;20245;31
2024/01/16 22:36:38;;;;;;;4.43;2.90;;;;;;;-3.66;77.58;98070.13;7244533;40;21234;31
2024/01/16 22:42:14;;;;;;;5.80;3.70;;;;;;;-3.79;78.29;98042.13;7233536;40;20311;31
2024/01/16 22:47:50;;;;;;;8.20;3.43;;;;;;;-3.77;78.41;98045.47;7256357;40;20253;31
2024/01/16 22:53:25;;;;;;;6.83;3.60;;;;;;;-3.56;77.89;98045.78;7175539;40;20263;31
2024/01/16 22:58:46;;;;;;;6.70;3.50;;;;;;;-3.60;77.79;98057.50;7178684;40;20246;31
2024/01/16 23:04:21;;;;;;;5.30;3.40;;;;;;;-3.66;77.67;98038.53;7189284;40;20243;31
2024/01/16 23:09:57;;;;;;;5.13;3.30;;;;;;;-3.69;77.96;98036.13;7124395;40;20309;31
2024/01/16 23:15:18;;;;;;;5.30;3.10;;;;;;;-3.78;78.37;98039.41;7186706;40;20247;31
2024/01/16 23:20:53;;;;;;;6.87;3.53;;;;;;;-3.78;78.34;98026.25;7235577;40;20262;31
2024/01/16 23:26:27;;;;;;;5.37;2.97;;;;;;;-3.85;78.32;98014.44;7259049;40;20347;31
2024/01/16 23:31:47;;;;;;;6.97;3.10;;;;;;;-3.90;79.13;97992.88;7220246;40;20239;31
2024/01/16 23:37:07;;;;;;;5.10;2.93;;;;;;;-3.84;79.92;97974.03;7215215;40;20269;31
2024/01/16 23:42:44;;;;;;;4.23;2.63;;;;;;;-3.75;80.97;97965.47;7251021;40;20241;31
2024/01/16 23:48:18;;;;;;;4.97;2.73;;;;;;;-3.64;80.29;97941.84;7243474;40;20258;31
2024/01/16 23:53:38;;;;;;;6.90;3.60;;;;;;;-3.47;79.29;97932.75;7207039;40;20297;31
2024/01/16 23:59:14;;;;;;;6.53;3.20;;;;;;;-3.40;79.42;97909.44;7256951;40;20241;31
